sensor_id;sensor_type;location;lat;lon;timestamp;temperature;humidity
11925;DHT22;6022;48.768;18.608;2023-05-19T00:00:40;10.10;99.90
11925;DHT22;6022;48.768;18.608;2023-05-19T00:03:14;10.20;99.90
11925;DHT22;6022;48.768;18.608;2023-05-19T00:05:44;10.40;99.90
11925;DHT22;6022;48.768;18.608;2023-05-19T00:08:15;10.50;99.90
11925;DHT22;6022;48.768;18.608;2023-05-19T00:10:45;10.40;99.90
11925;DHT22;6022;48.768;18.608;2023-05-19T00:13:13;10.30;99.90
11925;DHT22;6022;48.768;18.608;2023-05-19T00:15:43;10.50;99.90
11925;DHT22;6022;48.768;18.608;2023-05-19T00:18:12;10.00;99.90
11925;DHT22;6022;48.768;18.608;2023-05-19T00:20:42;10.20;99.90
11925;DHT22;6022;48.768;18.608;2023-05-19T00:23:10;10.30;99.90
11925;DHT22;6022;48.768;18.608;2023-05-19T00:25:38;10.20;99.90
11925;DHT22;6022;48.768;18.608;2023-05-19T00:28:07;10.20;99.90
11925;DHT22;6022;48.768;18.608;2023-05-19T00:30:37;10.10;99.90
11925;DHT22;6022;48.768;18.608;2023-05-19T00:33:06;10.20;99.90
11925;DHT22;6022;48.768;18.608;2023-05-19T00:35:35;10.20;99.90
11925;DHT22;6022;48.768;18.608;2023-05-19T00:38:03;10.40;99.90
11925;DHT22;6022;48.768;18.608;2023-05-19T00:40:34;10.20;99.90
11925;DHT22;6022;48.768;18.608;2023-05-19T00:43:03;10.20;99.90
11925;DHT22;6022;48.768;18.608;2023-05-19T00:45:34;10.20;99.90
11925;DHT22;6022;48.768;18.608;2023-05-19T00:48:02;10.40;99.90
11925;DHT22;6022;48.768;18.608;2023-05-19T00:50:32;10.40;99.90
11925;DHT22;6022;48.768;18.608;2023-05-19T00:53:02;10.50;99.90
11925;DHT22;6022;48.768;18.608;2023-05-19T00:55:30;10.20;99.90
11925;DHT22;6022;48.768;18.608;2023-05-19T00:58:00;10.10;99.90
11925;DHT22;6022;48.768;18.608;2023-05-19T01:00:30;10.50;99.90
11925;DHT22;6022;48.768;18.608;2023-05-19T01:02:59;10.10;99.90
11925;DHT22;6022;48.768;18.608;2023-05-19T01:05:30;10.20;99.90
11925;DHT22;6022;48.768;18.608;2023-05-19T01:07:59;10.20;99.90
11925;DHT22;6022;48.768;18.608;2023-05-19T01:10:29;10.10;99.90
11925;DHT22;6022;48.768;18.608;2023-05-19T01:12:58;10.10;99.90
11925;DHT22;6022;48.768;18.608;2023-05-19T01:15:27;10.40;99.90
11925;DHT22;6022;48.768;18.608;2023-05-19T01:18:09;10.10;99.90
11925;DHT22;6022;48.768;18.608;2023-05-19T01:20:45;10.10;99.90
11925;DHT22;6022;48.768;18.608;2023-05-19T01:26:10;10.10;99.90
11925;DHT22;6022;48.768;18.608;2023-05-19T01:31:58;10.00;99.90
11925;DHT22;6022;48.768;18.608;2023-05-19T01:34:29;10.10;99.90
11925;DHT22;6022;48.768;18.608;2023-05-19T01:37:00;10.10;99.90
11925;DHT22;6022;48.768;18.608;2023-05-19T01:39:32;10.20;99.90
11925;DHT22;6022;48.768;18.608;2023-05-19T01:42:03;10.40;99.90
11925;DHT22;6022;48.768;18.608;2023-05-19T01:44:33;10.00;99.90
11925;DHT22;6022;48.768;18.608;2023-05-19T01:47:03;10.00;99.90
11925;DHT22;6022;48.768;18.608;2023-05-19T01:49:32;10.40;99.90
11925;DHT22;6022;48.768;18.608;2023-05-19T01:52:01;10.10;99.90
11925;DHT22;6022;48.768;18.608;2023-05-19T01:54:30;10.40;99.90
11925;DHT22;6022;48.768;18.608;2023-05-19T01:57:03;10.00;99.90
11925;DHT22;6022;48.768;18.608;2023-05-19T02:05:51;10.20;99.90
11925;DHT22;6022;48.768;18.608;2023-05-19T02:08:43;10.10;99.90
11925;DHT22;6022;48.768;18.608;2023-05-19T02:11:49;10.10;99.90
11925;DHT22;6022;48.768;18.608;2023-05-19T02:14:30;9.90;99.90
11925;DHT22;6022;48.768;18.608;2023-05-19T02:17:04;10.10;99.90
11925;DHT22;6022;48.768;18.608;2023-05-19T02:19:36;10.00;99.90
11925;DHT22;6022;48.768;18.608;2023-05-19T02:22:08;10.10;99.90
11925;DHT22;6022;48.768;18.608;2023-05-19T02:24:38;10.00;99.90
11925;DHT22;6022;48.768;18.608;2023-05-19T02:27:09;9.90;99.90
11925;DHT22;6022;48.768;18.608;2023-05-19T02:29:37;9.90;99.90
11925;DHT22;6022;48.768;18.608;2023-05-19T02:32:06;10.00;99.90
11925;DHT22;6022;48.768;18.608;2023-05-19T02:34:35;10.10;99.90
11925;DHT22;6022;48.768;18.608;2023-05-19T02:37:04;10.00;99.90
11925;DHT22;6022;48.768;18.608;2023-05-19T02:39:34;10.10;99.90
11925;DHT22;6022;48.768;18.608;2023-05-19T02:42:02;9.80;99.90
11925;DHT22;6022;48.768;18.608;2023-05-19T02:44:31;9.80;99.90
11925;DHT22;6022;48.768;18.608;2023-05-19T02:47:01;9.90;99.90
11925;DHT22;6022;48.768;18.608;2023-05-19T02:49:30;9.80;99.90
11925;DHT22;6022;48.768;18.608;2023-05-19T02:52:03;9.90;99.90
11925;DHT22;6022;48.768;18.608;2023-05-19T02:54:33;9.90;99.90
11925;DHT22;6022;48.768;18.608;2023-05-19T02:57:01;9.50;99.90
11925;DHT22;6022;48.768;18.608;2023-05-19T02:59:31;9.70;99.90
11925;DHT22;6022;48.768;18.608;2023-05-19T03:02:00;9.80;99.90
11925;DHT22;6022;48.768;18.608;2023-05-19T03:04:29;9.80;99.90
11925;DHT22;6022;48.768;18.608;2023-05-19T03:06:59;9.90;99.90
11925;DHT22;6022;48.768;18.608;2023-05-19T03:09:29;9.90;99.90
11925;DHT22;6022;48.768;18.608;2023-05-19T03:11:58;9.50;99.90
11925;DHT22;6022;48.768;18.608;2023-05-19T03:14:31;9.70;99.90
11925;DHT22;6022;48.768;18.608;2023-05-19T03:17:02;9.70;99.90
11925;DHT22;6022;48.768;18.608;2023-05-19T03:19:29;9.80;99.90
11925;DHT22;6022;48.768;18.608;2023-05-19T03:22:00;10.00;99.90
11925;DHT22;6022;48.768;18.608;2023-05-19T03:24:30;9.60;99.90
11925;DHT22;6022;48.768;18.608;2023-05-19T03:26:59;10.00;99.90
11925;DHT22;6022;48.768;18.608;2023-05-19T03:29:28;9.80;99.90
11925;DHT22;6022;48.768;18.608;2023-05-19T03:31:57;9.80;99.90
11925;DHT22;6022;48.768;18.608;2023-05-19T03:34:26;9.80;99.90
11925;DHT22;6022;48.768;18.608;2023-05-19T03:36:55;9.90;99.90
11925;DHT22;6022;48.768;18.608;2023-05-19T03:39:23;10.10;99.90
11925;DHT22;6022;48.768;18.608;2023-05-19T03:41:53;9.90;99.90
11925;DHT22;6022;48.768;18.608;2023-05-19T03:44:24;9.90;99.90
11925;DHT22;6022;48.768;18.608;2023-05-19T03:46:54;9.90;99.90
11925;DHT22;6022;48.768;18.608;2023-05-19T03:49:21;9.90;99.90
11925;DHT22;6022;48.768;18.608;2023-05-19T03:51:49;9.90;99.90
11925;DHT22;6022;48.768;18.608;2023-05-19T03:54:18;9.70;99.90
11925;DHT22;6022;48.768;18.608;2023-05-19T03:56:49;9.90;99.90
11925;DHT22;6022;48.768;18.608;2023-05-19T03:59:18;10.00;99.90
11925;DHT22;6022;48.768;18.608;2023-05-19T04:01:46;9.90;99.90
11925;DHT22;6022;48.768;18.608;2023-05-19T04:04:15;9.90;99.90
11925;DHT22;6022;48.768;18.608;2023-05-19T04:06:45;10.00;99.90
11925;DHT22;6022;48.768;18.608;2023-05-19T04:09:13;9.90;99.90
11925;DHT22;6022;48.768;18.608;2023-05-19T04:11:42;10.00;99.90
11925;DHT22;6022;48.768;18.608;2023-05-19T04:14:11;10.00;99.90
11925;DHT22;6022;48.768;18.608;2023-05-19T04:16:39;10.30;99.90
11925;DHT22;6022;48.768;18.608;2023-05-19T04:19:09;10.10;99.90
11925;DHT22;6022;48.768;18.608;2023-05-19T04:21:38;10.20;99.90
11925;DHT22;6022;48.768;18.608;2023-05-19T04:24:16;10.00;99.90
11925;DHT22;6022;48.768;18.608;2023-05-19T04:26:45;10.20;99.90
11925;DHT22;6022;48.768;18.608;2023-05-19T04:29:14;10.40;99.90
11925;DHT22;6022;48.768;18.608;2023-05-19T04:31:45;10.20;99.90
11925;DHT22;6022;48.768;18.608;2023-05-19T04:34:13;10.30;99.90
11925;DHT22;6022;48.768;18.608;2023-05-19T04:36:42;10.10;99.90
11925;DHT22;6022;48.768;18.608;2023-05-19T04:39:11;10.20;99.90
11925;DHT22;6022;48.768;18.608;2023-05-19T04:41:39;10.30;99.90
11925;DHT22;6022;48.768;18.608;2023-05-19T04:44:07;10.40;99.90
11925;DHT22;6022;48.768;18.608;2023-05-19T04:46:35;10.30;99.90
11925;DHT22;6022;48.768;18.608;2023-05-19T04:49:04;10.40;99.90
11925;DHT22;6022;48.768;18.608;2023-05-19T04:51:32;10.50;99.90
11925;DHT22;6022;48.768;18.608;2023-05-19T04:54:02;10.50;99.90
11925;DHT22;6022;48.768;18.608;2023-05-19T04:56:32;10.40;99.90
11925;DHT22;6022;48.768;18.608;2023-05-19T04:59:03;10.50;99.90
11925;DHT22;6022;48.768;18.608;2023-05-19T05:01:31;10.40;99.90
11925;DHT22;6022;48.768;18.608;2023-05-19T05:04:03;10.90;99.90
11925;DHT22;6022;48.768;18.608;2023-05-19T05:06:34;10.40;99.90
11925;DHT22;6022;48.768;18.608;2023-05-19T05:09:04;10.70;99.90
11925;DHT22;6022;48.768;18.608;2023-05-19T05:11:34;10.60;99.90
11925;DHT22;6022;48.768;18.608;2023-05-19T05:14:02;10.50;99.90
11925;DHT22;6022;48.768;18.608;2023-05-19T05:16:31;10.90;99.90
11925;DHT22;6022;48.768;18.608;2023-05-19T05:19:04;9.60;99.90
11925;DHT22;6022;48.768;18.608;2023-05-19T05:21:37;10.90;99.90
11925;DHT22;6022;48.768;18.608;2023-05-19T05:24:09;10.80;99.90
11925;DHT22;6022;48.768;18.608;2023-05-19T05:26:40;10.80;99.90
11925;DHT22;6022;48.768;18.608;2023-05-19T05:29:09;10.80;99.90
11925;DHT22;6022;48.768;18.608;2023-05-19T05:31:37;11.10;99.90
11925;DHT22;6022;48.768;18.608;2023-05-19T05:34:08;10.80;99.90
11925;DHT22;6022;48.768;18.608;2023-05-19T05:36:37;10.90;99.90
11925;DHT22;6022;48.768;18.608;2023-05-19T05:39:06;10.90;99.90
11925;DHT22;6022;48.768;18.608;2023-05-19T05:41:35;11.00;99.90
11925;DHT22;6022;48.768;18.608;2023-05-19T05:44:04;10.90;99.90
11925;DHT22;6022;48.768;18.608;2023-05-19T05:46:32;11.10;99.90
11925;DHT22;6022;48.768;18.608;2023-05-19T05:49:01;11.00;99.90
11925;DHT22;6022;48.768;18.608;2023-05-19T05:51:31;11.10;99.90
11925;DHT22;6022;48.768;18.608;2023-05-19T05:54:01;11.10;99.90
11925;DHT22;6022;48.768;18.608;2023-05-19T05:56:30;11.00;99.90
11925;DHT22;6022;48.768;18.608;2023-05-19T05:59:01;11.00;99.90
11925;DHT22;6022;48.768;18.608;2023-05-19T06:01:30;10.80;99.90
11925;DHT22;6022;48.768;18.608;2023-05-19T06:04:01;11.10;99.90
11925;DHT22;6022;48.768;18.608;2023-05-19T06:06:30;11.00;99.90
11925;DHT22;6022;48.768;18.608;2023-05-19T06:08:59;11.20;99.90
11925;DHT22;6022;48.768;18.608;2023-05-19T06:11:27;11.20;99.90
11925;DHT22;6022;48.768;18.608;2023-05-19T06:13:55;11.20;99.90
11925;DHT22;6022;48.768;18.608;2023-05-19T06:16:24;11.20;99.90
11925;DHT22;6022;48.768;18.608;2023-05-19T06:18:52;11.00;99.90
11925;DHT22;6022;48.768;18.608;2023-05-19T06:21:22;11.30;99.90
11925;DHT22;6022;48.768;18.608;2023-05-19T06:23:52;11.40;99.90
11925;DHT22;6022;48.768;18.608;2023-05-19T06:26:23;11.40;99.90
11925;DHT22;6022;48.768;18.608;2023-05-19T06:28:52;11.40;99.90
11925;DHT22;6022;48.768;18.608;2023-05-19T06:31:20;11.60;99.90
11925;DHT22;6022;48.768;18.608;2023-05-19T06:33:50;11.50;99.90
11925;DHT22;6022;48.768;18.608;2023-05-19T06:36:18;11.60;99.90
11925;DHT22;6022;48.768;18.608;2023-05-19T06:38:48;11.50;99.90
11925;DHT22;6022;48.768;18.608;2023-05-19T06:41:16;11.70;99.90
11925;DHT22;6022;48.768;18.608;2023-05-19T06:43:46;11.80;99.90
11925;DHT22;6022;48.768;18.608;2023-05-19T06:46:19;11.80;99.90
11925;DHT22;6022;48.768;18.608;2023-05-19T06:48:47;11.80;99.90
11925;DHT22;6022;48.768;18.608;2023-05-19T06:51:16;11.80;99.90
11925;DHT22;6022;48.768;18.608;2023-05-19T06:53:51;12.00;99.90
11925;DHT22;6022;48.768;18.608;2023-05-19T06:56:20;12.00;99.90
11925;DHT22;6022;48.768;18.608;2023-05-19T06:58:52;11.80;99.90
11925;DHT22;6022;48.768;18.608;2023-05-19T07:01:22;12.20;99.90
11925;DHT22;6022;48.768;18.608;2023-05-19T07:03:53;12.20;99.90
11925;DHT22;6022;48.768;18.608;2023-05-19T07:06:24;12.20;99.90
11925;DHT22;6022;48.768;18.608;2023-05-19T07:08:53;12.40;99.90
11925;DHT22;6022;48.768;18.608;2023-05-19T07:11:21;12.80;99.90
11925;DHT22;6022;48.768;18.608;2023-05-19T07:13:49;12.80;99.90
11925;DHT22;6022;48.768;18.608;2023-05-19T07:16:17;12.70;99.90
11925;DHT22;6022;48.768;18.608;2023-05-19T07:18:45;13.00;99.90
11925;DHT22;6022;48.768;18.608;2023-05-19T07:21:13;13.00;99.90
11925;DHT22;6022;48.768;18.608;2023-05-19T07:23:41;13.00;99.90
11925;DHT22;6022;48.768;18.608;2023-05-19T07:26:10;13.10;99.90
11925;DHT22;6022;48.768;18.608;2023-05-19T07:28:41;13.60;99.90
11925;DHT22;6022;48.768;18.608;2023-05-19T07:31:12;13.50;99.90
11925;DHT22;6022;48.768;18.608;2023-05-19T07:33:40;13.80;99.90
11925;DHT22;6022;48.768;18.608;2023-05-19T07:36:23;14.00;99.90
11925;DHT22;6022;48.768;18.608;2023-05-19T07:38:51;14.00;99.90
11925;DHT22;6022;48.768;18.608;2023-05-19T07:41:20;14.20;99.90
11925;DHT22;6022;48.768;18.608;2023-05-19T07:43:53;14.60;99.90
11925;DHT22;6022;48.768;18.608;2023-05-19T07:46:21;14.60;99.90
11925;DHT22;6022;48.768;18.608;2023-05-19T07:48:48;14.30;99.90
11925;DHT22;6022;48.768;18.608;2023-05-19T07:51:17;14.50;99.90
11925;DHT22;6022;48.768;18.608;2023-05-19T07:53:45;15.10;99.90
11925;DHT22;6022;48.768;18.608;2023-05-19T07:56:13;15.20;99.90
11925;DHT22;6022;48.768;18.608;2023-05-19T07:58:42;15.70;99.90
11925;DHT22;6022;48.768;18.608;2023-05-19T08:01:11;16.60;99.90
11925;DHT22;6022;48.768;18.608;2023-05-19T08:03:39;17.20;99.90
11925;DHT22;6022;48.768;18.608;2023-05-19T08:06:07;17.60;99.90
11925;DHT22;6022;48.768;18.608;2023-05-19T08:08:36;17.60;99.90
11925;DHT22;6022;48.768;18.608;2023-05-19T08:11:04;16.90;99.90
11925;DHT22;6022;48.768;18.608;2023-05-19T08:13:35;16.60;99.90
11925;DHT22;6022;48.768;18.608;2023-05-19T08:16:03;16.90;99.90
11925;DHT22;6022;48.768;18.608;2023-05-19T08:18:33;16.80;99.90
11925;DHT22;6022;48.768;18.608;2023-05-19T08:21:01;16.60;99.90
11925;DHT22;6022;48.768;18.608;2023-05-19T08:23:29;17.50;99.90
11925;DHT22;6022;48.768;18.608;2023-05-19T08:25:58;17.40;99.90
11925;DHT22;6022;48.768;18.608;2023-05-19T08:28:26;17.60;99.90
11925;DHT22;6022;48.768;18.608;2023-05-19T08:30:54;18.10;99.90
11925;DHT22;6022;48.768;18.608;2023-05-19T08:33:22;19.10;99.90
11925;DHT22;6022;48.768;18.608;2023-05-19T08:35:50;19.30;99.90
11925;DHT22;6022;48.768;18.608;2023-05-19T08:38:18;19.70;99.90
11925;DHT22;6022;48.768;18.608;2023-05-19T08:40:46;19.60;99.90
11925;DHT22;6022;48.768;18.608;2023-05-19T08:43:14;19.50;99.90
11925;DHT22;6022;48.768;18.608;2023-05-19T08:45:45;19.40;99.90
11925;DHT22;6022;48.768;18.608;2023-05-19T08:48:16;19.80;99.90
11925;DHT22;6022;48.768;18.608;2023-05-19T08:50:55;19.80;99.90
11925;DHT22;6022;48.768;18.608;2023-05-19T08:53:34;19.90;99.90
11925;DHT22;6022;48.768;18.608;2023-05-19T08:56:10;19.40;99.90
11925;DHT22;6022;48.768;18.608;2023-05-19T08:58:41;19.60;99.90
11925;DHT22;6022;48.768;18.608;2023-05-19T09:01:12;19.70;99.90
11925;DHT22;6022;48.768;18.608;2023-05-19T09:03:47;20.50;99.90
11925;DHT22;6022;48.768;18.608;2023-05-19T09:06:16;19.30;99.90
11925;DHT22;6022;48.768;18.608;2023-05-19T09:08:44;19.30;99.90
11925;DHT22;6022;48.768;18.608;2023-05-19T09:11:13;21.10;99.90
11925;DHT22;6022;48.768;18.608;2023-05-19T09:13:41;21.70;99.90
11925;DHT22;6022;48.768;18.608;2023-05-19T09:16:08;21.80;99.90
11925;DHT22;6022;48.768;18.608;2023-05-19T09:18:38;22.70;99.90
11925;DHT22;6022;48.768;18.608;2023-05-19T09:21:09;22.90;99.90
11925;DHT22;6022;48.768;18.608;2023-05-19T09:23:37;23.20;99.90
11925;DHT22;6022;48.768;18.608;2023-05-19T09:26:06;23.00;99.90
11925;DHT22;6022;48.768;18.608;2023-05-19T09:28:35;23.00;99.90
11925;DHT22;6022;48.768;18.608;2023-05-19T09:31:20;23.10;99.90
11925;DHT22;6022;48.768;18.608;2023-05-19T09:33:52;23.00;99.90
11925;DHT22;6022;48.768;18.608;2023-05-19T09:36:20;23.30;99.90
11925;DHT22;6022;48.768;18.608;2023-05-19T09:38:48;23.20;99.90
11925;DHT22;6022;48.768;18.608;2023-05-19T09:41:17;23.20;99.90
11925;DHT22;6022;48.768;18.608;2023-05-19T09:43:53;23.40;99.90
11925;DHT22;6022;48.768;18.608;2023-05-19T09:46:25;23.30;99.90
11925;DHT22;6022;48.768;18.608;2023-05-19T09:48:57;23.50;99.90
11925;DHT22;6022;48.768;18.608;2023-05-19T09:51:26;22.90;99.90
11925;DHT22;6022;48.768;18.608;2023-05-19T09:53:56;22.80;99.90
11925;DHT22;6022;48.768;18.608;2023-05-19T09:56:32;22.80;99.90
11925;DHT22;6022;48.768;18.608;2023-05-19T09:59:02;22.40;99.90
11925;DHT22;6022;48.768;18.608;2023-05-19T10:01:31;22.30;99.90
11925;DHT22;6022;48.768;18.608;2023-05-19T10:03:59;22.10;99.90
11925;DHT22;6022;48.768;18.608;2023-05-19T10:06:32;21.80;99.90
11925;DHT22;6022;48.768;18.608;2023-05-19T10:09:02;21.90;99.90
11925;DHT22;6022;48.768;18.608;2023-05-19T10:11:31;21.80;99.90
11925;DHT22;6022;48.768;18.608;2023-05-19T10:13:59;21.40;99.90
11925;DHT22;6022;48.768;18.608;2023-05-19T10:16:29;21.90;99.90
11925;DHT22;6022;48.768;18.608;2023-05-19T10:19:01;22.00;99.90
11925;DHT22;6022;48.768;18.608;2023-05-19T10:21:30;22.10;99.90
11925;DHT22;6022;48.768;18.608;2023-05-19T10:23:59;22.60;99.90
11925;DHT22;6022;48.768;18.608;2023-05-19T10:26:27;22.50;99.90
11925;DHT22;6022;48.768;18.608;2023-05-19T10:28:55;22.50;99.90
11925;DHT22;6022;48.768;18.608;2023-05-19T10:31:25;22.70;99.90
11925;DHT22;6022;48.768;18.608;2023-05-19T10:39:44;23.30;99.90
11925;DHT22;6022;48.768;18.608;2023-05-19T10:42:18;23.30;99.90
11925;DHT22;6022;48.768;18.608;2023-05-19T10:45:21;23.10;99.90
11925;DHT22;6022;48.768;18.608;2023-05-19T10:47:53;23.10;99.90
11925;DHT22;6022;48.768;18.608;2023-05-19T10:50:22;23.20;99.90
11925;DHT22;6022;48.768;18.608;2023-05-19T10:52:54;23.60;99.90
11925;DHT22;6022;48.768;18.608;2023-05-19T10:55:49;24.10;99.90
11925;DHT22;6022;48.768;18.608;2023-05-19T11:01:16;23.70;99.90
11925;DHT22;6022;48.768;18.608;2023-05-19T11:03:50;23.60;99.90
11925;DHT22;6022;48.768;18.608;2023-05-19T11:06:33;24.40;99.90
11925;DHT22;6022;48.768;18.608;2023-05-19T11:09:14;24.40;99.90
11925;DHT22;6022;48.768;18.608;2023-05-19T11:11:54;24.20;99.90
11925;DHT22;6022;48.768;18.608;2023-05-19T11:14:26;24.40;99.90
11925;DHT22;6022;48.768;18.608;2023-05-19T11:16:58;24.10;99.90
11925;DHT22;6022;48.768;18.608;2023-05-19T11:19:28;24.00;99.90
11925;DHT22;6022;48.768;18.608;2023-05-19T11:22:11;23.90;99.90
11925;DHT22;6022;48.768;18.608;2023-05-19T11:24:49;23.70;99.90
11925;DHT22;6022;48.768;18.608;2023-05-19T11:27:29;23.70;99.90
11925;DHT22;6022;48.768;18.608;2023-05-19T11:30:08;23.60;99.90
11925;DHT22;6022;48.768;18.608;2023-05-19T11:32:47;23.70;99.90
11925;DHT22;6022;48.768;18.608;2023-05-19T11:35:19;23.60;99.90
11925;DHT22;6022;48.768;18.608;2023-05-19T11:37:48;23.50;99.90
11925;DHT22;6022;48.768;18.608;2023-05-19T11:40:20;23.70;99.90
11925;DHT22;6022;48.768;18.608;2023-05-19T11:42:51;23.60;99.90
11925;DHT22;6022;48.768;18.608;2023-05-19T11:45:26;23.60;99.90
11925;DHT22;6022;48.768;18.608;2023-05-19T11:47:57;23.40;99.90
11925;DHT22;6022;48.768;18.608;2023-05-19T11:50:31;23.30;99.90
11925;DHT22;6022;48.768;18.608;2023-05-19T11:53:00;23.40;99.90
11925;DHT22;6022;48.768;18.608;2023-05-19T11:55:29;23.40;99.90
11925;DHT22;6022;48.768;18.608;2023-05-19T11:57:58;23.50;99.90
11925;DHT22;6022;48.768;18.608;2023-05-19T12:00:49;23.30;99.90
11925;DHT22;6022;48.768;18.608;2023-05-19T12:03:20;23.20;99.90
11925;DHT22;6022;48.768;18.608;2023-05-19T12:05:55;23.10;99.90
11925;DHT22;6022;48.768;18.608;2023-05-19T12:08:24;23.10;99.90
11925;DHT22;6022;48.768;18.608;2023-05-19T12:10:53;22.70;99.90
11925;DHT22;6022;48.768;18.608;2023-05-19T12:13:22;22.90;99.90
11925;DHT22;6022;48.768;18.608;2023-05-19T12:15:52;22.60;99.90
11925;DHT22;6022;48.768;18.608;2023-05-19T12:18:19;22.50;99.90
11925;DHT22;6022;48.768;18.608;2023-05-19T12:20:50;22.50;99.90
11925;DHT22;6022;48.768;18.608;2023-05-19T12:23:22;23.00;99.90
11925;DHT22;6022;48.768;18.608;2023-05-19T12:25:52;23.30;99.90
11925;DHT22;6022;48.768;18.608;2023-05-19T12:28:20;23.50;99.90
11925;DHT22;6022;48.768;18.608;2023-05-19T12:30:52;23.70;99.90
11925;DHT22;6022;48.768;18.608;2023-05-19T12:33:20;23.70;99.90
11925;DHT22;6022;48.768;18.608;2023-05-19T12:35:56;23.70;99.90
11925;DHT22;6022;48.768;18.608;2023-05-19T12:38:24;23.80;99.90
11925;DHT22;6022;48.768;18.608;2023-05-19T12:40:57;24.10;99.90
11925;DHT22;6022;48.768;18.608;2023-05-19T12:43:28;23.80;99.90
11925;DHT22;6022;48.768;18.608;2023-05-19T12:46:08;23.20;99.90
11925;DHT22;6022;48.768;18.608;2023-05-19T12:48:42;23.10;99.90
11925;DHT22;6022;48.768;18.608;2023-05-19T12:51:20;22.80;99.90
11925;DHT22;6022;48.768;18.608;2023-05-19T12:53:49;22.90;99.90
11925;DHT22;6022;48.768;18.608;2023-05-19T12:56:17;22.40;99.90
11925;DHT22;6022;48.768;18.608;2023-05-19T12:58:53;22.50;99.90
11925;DHT22;6022;48.768;18.608;2023-05-19T13:01:22;22.70;99.90
11925;DHT22;6022;48.768;18.608;2023-05-19T13:03:53;22.40;99.90
11925;DHT22;6022;48.768;18.608;2023-05-19T13:06:27;22.00;99.90
11925;DHT22;6022;48.768;18.608;2023-05-19T13:08:55;22.10;99.90
11925;DHT22;6022;48.768;18.608;2023-05-19T13:11:23;22.10;99.90
11925;DHT22;6022;48.768;18.608;2023-05-19T13:13:54;22.10;99.90
11925;DHT22;6022;48.768;18.608;2023-05-19T13:16:23;22.20;99.90
11925;DHT22;6022;48.768;18.608;2023-05-19T13:18:55;22.20;99.90
11925;DHT22;6022;48.768;18.608;2023-05-19T13:21:27;21.90;99.90
11925;DHT22;6022;48.768;18.608;2023-05-19T13:23:56;21.90;99.90
11925;DHT22;6022;48.768;18.608;2023-05-19T13:26:24;21.90;99.90
11925;DHT22;6022;48.768;18.608;2023-05-19T13:28:53;21.90;99.90
11925;DHT22;6022;48.768;18.608;2023-05-19T13:31:20;22.10;99.90
11925;DHT22;6022;48.768;18.608;2023-05-19T13:33:49;21.90;99.90
11925;DHT22;6022;48.768;18.608;2023-05-19T13:36:16;21.90;99.90
11925;DHT22;6022;48.768;18.608;2023-05-19T13:38:44;22.20;99.90
11925;DHT22;6022;48.768;18.608;2023-05-19T13:41:12;21.90;99.90
11925;DHT22;6022;48.768;18.608;2023-05-19T13:43:41;21.80;99.90
11925;DHT22;6022;48.768;18.608;2023-05-19T13:46:09;21.80;99.90
11925;DHT22;6022;48.768;18.608;2023-05-19T13:48:37;21.90;99.90
11925;DHT22;6022;48.768;18.608;2023-05-19T13:51:06;21.80;99.90
11925;DHT22;6022;48.768;18.608;2023-05-19T13:53:33;21.90;99.90
11925;DHT22;6022;48.768;18.608;2023-05-19T13:56:03;21.90;99.90
11925;DHT22;6022;48.768;18.608;2023-05-19T13:58:31;21.90;99.90
11925;DHT22;6022;48.768;18.608;2023-05-19T14:01:01;22.00;99.90
11925;DHT22;6022;48.768;18.608;2023-05-19T14:03:30;22.10;99.90
11925;DHT22;6022;48.768;18.608;2023-05-19T14:05:58;21.70;99.90
11925;DHT22;6022;48.768;18.608;2023-05-19T14:08:27;22.00;99.90
11925;DHT22;6022;48.768;18.608;2023-05-19T14:10:55;22.10;99.90
11925;DHT22;6022;48.768;18.608;2023-05-19T14:13:24;22.00;99.90
11925;DHT22;6022;48.768;18.608;2023-05-19T14:16:01;21.90;99.90
11925;DHT22;6022;48.768;18.608;2023-05-19T14:18:29;21.90;99.90
11925;DHT22;6022;48.768;18.608;2023-05-19T14:20:58;21.90;99.90
11925;DHT22;6022;48.768;18.608;2023-05-19T14:23:26;21.80;99.90
11925;DHT22;6022;48.768;18.608;2023-05-19T14:25:57;22.10;99.90
11925;DHT22;6022;48.768;18.608;2023-05-19T14:28:26;21.80;99.90
11925;DHT22;6022;48.768;18.608;2023-05-19T14:30:54;22.20;99.90
11925;DHT22;6022;48.768;18.608;2023-05-19T14:33:23;21.80;99.90
11925;DHT22;6022;48.768;18.608;2023-05-19T14:35:52;21.80;99.90
11925;DHT22;6022;48.768;18.608;2023-05-19T14:38:31;21.80;99.90
11925;DHT22;6022;48.768;18.608;2023-05-19T14:40:59;21.80;99.90
11925;DHT22;6022;48.768;18.608;2023-05-19T14:43:27;22.10;99.90
11925;DHT22;6022;48.768;18.608;2023-05-19T14:45:55;21.70;99.90
11925;DHT22;6022;48.768;18.608;2023-05-19T14:48:23;21.60;99.90
11925;DHT22;6022;48.768;18.608;2023-05-19T14:50:52;21.60;99.90
11925;DHT22;6022;48.768;18.608;2023-05-19T14:53:20;21.50;99.90
11925;DHT22;6022;48.768;18.608;2023-05-19T14:55:50;21.60;99.90
11925;DHT22;6022;48.768;18.608;2023-05-19T14:58:19;21.50;99.90
11925;DHT22;6022;48.768;18.608;2023-05-19T15:00:57;21.60;99.90
11925;DHT22;6022;48.768;18.608;2023-05-19T15:03:25;21.80;99.90
11925;DHT22;6022;48.768;18.608;2023-05-19T15:05:53;21.50;99.90
11925;DHT22;6022;48.768;18.608;2023-05-19T15:08:22;21.50;99.90
11925;DHT22;6022;48.768;18.608;2023-05-19T15:10:51;21.60;99.90
11925;DHT22;6022;48.768;18.608;2023-05-19T15:13:19;21.40;99.90
11925;DHT22;6022;48.768;18.608;2023-05-19T15:15:47;21.50;99.90
11925;DHT22;6022;48.768;18.608;2023-05-19T15:18:35;21.50;99.90
11925;DHT22;6022;48.768;18.608;2023-05-19T15:21:04;21.50;99.90
11925;DHT22;6022;48.768;18.608;2023-05-19T15:23:32;21.50;99.90
11925;DHT22;6022;48.768;18.608;2023-05-19T15:26:01;21.60;99.90
11925;DHT22;6022;48.768;18.608;2023-05-19T15:28:30;21.40;99.90
11925;DHT22;6022;48.768;18.608;2023-05-19T15:30:59;21.20;99.90
11925;DHT22;6022;48.768;18.608;2023-05-19T15:33:27;21.40;99.90
11925;DHT22;6022;48.768;18.608;2023-05-19T15:35:56;21.30;99.90
11925;DHT22;6022;48.768;18.608;2023-05-19T15:38:25;21.30;99.90
11925;DHT22;6022;48.768;18.608;2023-05-19T15:40:58;21.30;99.90
11925;DHT22;6022;48.768;18.608;2023-05-19T15:43:26;21.50;99.90
11925;DHT22;6022;48.768;18.608;2023-05-19T15:45:54;21.30;99.90
11925;DHT22;6022;48.768;18.608;2023-05-19T15:48:25;21.20;99.90
11925;DHT22;6022;48.768;18.608;2023-05-19T15:50:59;21.20;99.90
11925;DHT22;6022;48.768;18.608;2023-05-19T15:53:27;21.20;99.90
11925;DHT22;6022;48.768;18.608;2023-05-19T15:55:56;21.10;99.90
11925;DHT22;6022;48.768;18.608;2023-05-19T15:58:24;21.20;99.90
11925;DHT22;6022;48.768;18.608;2023-05-19T16:00:54;21.10;99.90
11925;DHT22;6022;48.768;18.608;2023-05-19T16:03:22;21.10;99.90
11925;DHT22;6022;48.768;18.608;2023-05-19T16:05:53;21.10;99.90
11925;DHT22;6022;48.768;18.608;2023-05-19T16:08:31;21.00;99.90
11925;DHT22;6022;48.768;18.608;2023-05-19T16:11:02;21.30;99.90
11925;DHT22;6022;48.768;18.608;2023-05-19T16:13:30;20.90;99.90